Time,TemperatureF,DewpointF,PressureIn,WindDirection,WindDirectionDegrees,WindSpeedMPH,WindSpeedGustMPH,Humidity,HourlyPrecipIn,Conditions,Clouds,dailyrainin,SoftwareType,DateUTC
2013-01-15 00:03:00,60.0,56.0,30.07,East,97,0.0,0.0,86,0.00,,,0.00,,2013-01-15 05:03:00,
2013-01-15 00:12:00,60.0,56.0,30.07,East,97,0.0,0.0,86,0.00,,,0.00,,2013-01-15 05:12:00,
2013-01-15 00:22:00,60.0,56.0,30.07,East,97,0.0,0.0,87,0.00,,,0.00,,2013-01-15 05:22:00,
2013-01-15 00:33:00,60.0,56.0,30.06,East,97,0.0,0.0,88,0.00,,,0.00,,2013-01-15 05:33:00,
2013-01-15 00:42:00,60.0,56.0,30.06,East,97,0.0,0.0,88,0.00,,,0.00,,2013-01-15 05:42:00,
2013-01-15 00:53:00,59.0,55.0,30.07,East,97,0.0,0.0,88,0.00,,,0.00,,2013-01-15 05:53:00,
2013-01-15 01:02:00,59.0,55.0,30.06,East,97,0.0,0.0,88,0.00,,,0.00,,2013-01-15 06:02:00,
2013-01-15 01:12:00,59.0,55.0,30.06,East,97,0.0,0.0,88,0.00,,,0.00,,2013-01-15 06:12:00,
2013-01-15 01:22:00,59.0,56.0,30.06,East,97,0.0,0.0,89,0.00,,,0.00,,2013-01-15 06:22:00,
2013-01-15 01:33:00,59.0,56.0,30.06,East,97,0.0,1.0,89,0.00,,,0.00,,2013-01-15 06:33:00,
2013-01-15 01:43:00,59.0,56.0,30.06,East,97,0.0,1.0,89,0.00,,,0.00,,2013-01-15 06:43:00,
2013-01-15 01:53:00,58.0,55.0,30.06,East,97,0.0,0.0,89,0.00,,,0.00,,2013-01-15 06:53:00,
2013-01-15 02:02:00,58.0,55.0,30.06,East,97,0.0,0.0,89,0.00,,,0.00,,2013-01-15 07:02:00,
2013-01-15 02:12:00,58.0,55.0,30.06,East,97,0.0,0.0,89,0.00,,,0.00,,2013-01-15 07:12:00,
2013-01-15 02:22:00,58.0,55.0,30.06,East,97,0.0,0.0,90,0.00,,,0.00,,2013-01-15 07:22:00,
2013-01-15 02:33:00,58.0,55.0,30.06,East,97,0.0,0.0,90,0.00,,,0.00,,2013-01-15 07:33:00,
2013-01-15 02:42:00,58.0,55.0,30.06,East,97,0.0,0.0,90,0.00,,,0.00,,2013-01-15 07:42:00,
2013-01-15 02:53:00,58.0,55.0,30.06,East,97,0.0,0.0,90,0.00,,,0.00,,2013-01-15 07:53:00,
2013-01-15 03:02:00,58.0,55.0,30.06,East,97,0.0,0.0,90,0.00,,,0.00,,2013-01-15 08:02:00,
2013-01-15 03:12:00,58.0,55.0,30.06,East,97,0.0,0.0,90,0.00,,,0.00,,2013-01-15 08:12:00,
2013-01-15 03:22:00,58.0,55.0,30.05,East,97,0.0,0.0,90,0.00,,,0.00,,2013-01-15 08:22:00,
2013-01-15 03:33:00,58.0,55.0,30.05,East,97,0.0,0.0,91,0.00,,,0.00,,2013-01-15 08:33:00,
2013-01-15 03:43:00,58.0,55.0,30.05,East,97,0.0,0.0,91,0.00,,,0.00,,2013-01-15 08:43:00,
2013-01-15 03:53:00,57.0,54.0,30.04,East,97,0.0,0.0,91,0.00,,,0.00,,2013-01-15 08:53:00,
2013-01-15 04:02:00,57.0,54.0,30.04,East,97,0.0,0.0,91,0.00,,,0.00,,2013-01-15 09:02:00,
2013-01-15 04:12:00,57.0,54.0,30.04,East,97,0.0,0.0,91,0.00,,,0.00,,2013-01-15 09:12:00,
2013-01-15 04:22:00,57.0,54.0,30.04,East,97,0.0,0.0,91,0.00,,,0.00,,2013-01-15 09:22:00,
2013-01-15 04:33:00,57.0,54.0,30.04,East,97,0.0,0.0,91,0.00,,,0.00,,2013-01-15 09:33:00,
2013-01-15 04:42:00,57.0,54.0,30.04,East,97,0.0,0.0,91,0.00,,,0.00,,2013-01-15 09:42:00,
2013-01-15 04:52:00,57.0,54.0,30.03,East,97,0.0,0.0,91,0.00,,,0.00,,2013-01-15 09:52:00,
2013-01-15 05:02:00,57.0,54.0,30.03,East,97,0.0,0.0,91,0.00,,,0.00,,2013-01-15 10:02:00,
2013-01-15 05:12:00,57.0,54.0,30.03,East,97,0.0,0.0,91,0.00,,,0.00,,2013-01-15 10:12:00,
2013-01-15 05:22:00,57.0,54.0,30.03,East,97,0.0,0.0,91,0.00,,,0.00,,2013-01-15 10:22:00,
2013-01-15 05:32:00,56.0,53.0,30.03,East,97,0.0,0.0,91,0.00,,,0.00,,2013-01-15 10:32:00,
2013-01-15 05:42:00,56.0,53.0,30.03,East,97,0.0,0.0,91,0.00,,,0.00,,2013-01-15 10:42:00,
2013-01-15 05:52:00,56.0,54.0,30.03,East,97,0.0,0.0,92,0.00,,,0.00,,2013-01-15 10:52:00,
2013-01-15 06:02:00,56.0,54.0,30.03,East,97,0.0,0.0,92,0.00,,,0.00,,2013-01-15 11:02:00,
2013-01-15 06:12:00,56.0,54.0,30.03,East,97,0.0,0.0,92,0.00,,,0.00,,2013-01-15 11:12:00,
2013-01-15 06:23:00,56.0,54.0,30.03,East,97,0.0,0.0,92,0.00,,,0.00,,2013-01-15 11:23:00,
2013-01-15 06:33:00,56.0,54.0,30.03,East,97,0.0,0.0,92,0.00,,,0.00,,2013-01-15 11:33:00,
2013-01-15 06:43:00,56.0,54.0,30.03,East,97,0.0,0.0,92,0.00,,,0.00,,2013-01-15 11:43:00,
2013-01-15 06:53:00,56.0,54.0,30.04,East,97,0.0,0.0,92,0.00,,,0.00,,2013-01-15 11:53:00,
2013-01-15 07:03:00,56.0,54.0,30.04,East,97,0.0,0.0,92,0.00,,,0.00,,2013-01-15 12:03:00,
2013-01-15 07:12:00,56.0,54.0,30.04,East,97,0.0,0.0,92,0.00,,,0.00,,2013-01-15 12:12:00,
2013-01-15 07:22:00,56.0,54.0,30.04,East,97,0.0,0.0,92,0.00,,,0.00,,2013-01-15 12:22:00,
2013-01-15 07:33:00,56.0,54.0,30.05,East,97,0.0,0.0,92,0.00,,,0.00,,2013-01-15 12:33:00,
2013-01-15 07:43:00,56.0,54.0,30.05,East,97,0.0,0.0,92,0.00,,,0.00,,2013-01-15 12:43:00,
2013-01-15 07:53:00,56.0,54.0,30.06,East,97,0.0,0.0,92,0.00,,,0.01,,2013-01-15 12:53:00,
2013-01-15 08:03:00,56.0,54.0,30.06,East,97,0.0,0.0,92,0.00,,,0.01,,2013-01-15 13:03:00,
2013-01-15 08:12:00,56.0,54.0,30.06,East,97,0.0,0.0,92,0.00,,,0.01,,2013-01-15 13:12:00,
2013-01-15 08:23:00,56.0,54.0,30.06,East,97,0.0,0.0,92,0.00,,,0.01,,2013-01-15 13:23:00,
2013-01-15 08:33:00,57.0,55.0,30.06,East,97,0.0,1.0,93,0.00,,,0.01,,2013-01-15 13:33:00,
2013-01-15 08:43:00,57.0,55.0,30.06,East,97,0.0,1.0,93,0.00,,,0.01,,2013-01-15 13:43:00,
2013-01-15 08:53:00,62.0,61.0,30.06,East,97,0.0,0.0,95,0.00,,,0.01,,2013-01-15 13:53:00,
2013-01-15 09:03:00,64.0,62.0,30.06,East,97,0.0,0.0,94,0.00,,,0.01,,2013-01-15 14:03:00,
2013-01-15 09:13:00,64.0,62.0,30.06,East,97,0.0,0.0,94,0.00,,,0.01,,2013-01-15 14:13:00,
2013-01-15 09:23:00,67.0,65.0,30.06,ESE,103,0.0,1.0,92,0.00,,,0.01,,2013-01-15 14:23:00,
2013-01-15 09:33:00,68.0,64.0,30.06,ESE,113,0.0,0.0,88,0.00,,,0.01,,2013-01-15 14:33:00,
2013-01-15 09:43:00,68.0,64.0,30.06,ESE,113,0.0,0.0,88,0.00,,,0.01,,2013-01-15 14:43:00,
2013-01-15 09:54:00,71.0,65.0,30.06,East,97,0.0,2.0,82,0.00,,,0.01,,2013-01-15 14:54:00,
2013-01-15 10:03:00,73.0,65.0,30.07,SE,140,0.0,0.0,77,0.00,,,0.01,,2013-01-15 15:03:00,
2013-01-15 10:12:00,73.0,65.0,30.07,SE,140,0.0,0.0,77,0.00,,,0.01,,2013-01-15 15:12:00,
2013-01-15 10:23:00,75.0,65.0,30.07,ESE,103,4.0,7.0,72,0.00,,,0.01,,2013-01-15 15:23:00,
2013-01-15 10:33:00,76.0,65.0,30.07,East,96,0.0,0.0,68,0.00,,,0.01,,2013-01-15 15:33:00,
2013-01-15 10:43:00,76.0,65.0,30.07,East,96,0.0,0.0,68,0.00,,,0.01,,2013-01-15 15:43:00,
2013-01-15 10:53:00,76.0,65.0,30.07,East,84,1.0,3.0,69,0.00,,,0.01,,2013-01-15 15:53:00,
2013-01-15 11:03:00,76.0,65.0,30.06,East,98,0.0,3.0,69,0.00,,,0.01,,2013-01-15 16:03:00,
2013-01-15 11:12:00,76.0,65.0,30.06,East,98,0.0,3.0,69,0.00,,,0.01,,2013-01-15 16:12:00,
2013-01-15 11:23:00,78.0,65.0,30.06,SSW,192,4.0,7.0,64,0.00,,,0.01,,2013-01-15 16:23:00,
2013-01-15 11:33:00,78.0,63.0,30.05,East,97,2.0,5.0,61,0.00,,,0.01,,2013-01-15 16:33:00,
2013-01-15 11:43:00,78.0,63.0,30.05,East,97,2.0,5.0,61,0.00,,,0.01,,2013-01-15 16:43:00,
2013-01-15 11:53:00,78.0,65.0,30.04,East,81,1.0,3.0,65,0.00,,,0.01,,2013-01-15 16:53:00,
2013-01-15 12:03:00,78.0,63.0,30.03,South,172,1.0,5.0,61,0.00,,,0.01,,2013-01-15 17:03:00,
2013-01-15 12:12:00,78.0,63.0,30.03,South,172,1.0,5.0,61,0.00,,,0.01,,2013-01-15 17:12:00,
2013-01-15 12:23:00,78.0,62.0,30.03,SSW,213,0.0,3.0,59,0.00,,,0.01,,2013-01-15 17:23:00,
2013-01-15 12:33:00,78.0,62.0,30.03,ESE,104,2.0,6.0,59,0.00,,,0.01,,2013-01-15 17:33:00,
2013-01-15 12:43:00,78.0,62.0,30.03,ESE,104,2.0,6.0,59,0.00,,,0.01,,2013-01-15 17:43:00,
2013-01-15 12:53:00,78.0,63.0,30.02,South,184,0.0,2.0,61,0.00,,,0.01,,2013-01-15 17:53:00,
2013-01-15 13:03:00,79.0,62.0,30.01,West,262,0.0,0.0,57,0.00,,,0.01,,2013-01-15 18:03:00,
2013-01-15 13:13:00,79.0,62.0,30.01,West,262,0.0,0.0,57,0.00,,,0.01,,2013-01-15 18:13:00,
2013-01-15 13:23:00,80.0,62.0,30.00,ESE,105,1.0,3.0,55,0.00,,,0.01,,2013-01-15 18:23:00,
2013-01-15 13:33:00,80.0,63.0,30.00,SSE,152,1.0,4.0,56,0.00,,,0.01,,2013-01-15 18:33:00,
2013-01-15 13:43:00,80.0,63.0,30.00,SSE,152,1.0,4.0,56,0.00,,,0.01,,2013-01-15 18:43:00,
2013-01-15 13:54:00,79.0,61.0,29.99,ESE,105,2.0,4.0,55,0.00,,,0.01,,2013-01-15 18:54:00,
2013-01-15 14:03:00,79.0,61.0,29.99,SSW,209,0.0,2.0,55,0.00,,,0.01,,2013-01-15 19:03:00,
2013-01-15 14:13:00,79.0,61.0,29.99,SSW,209,0.0,2.0,55,0.00,,,0.01,,2013-01-15 19:13:00,
2013-01-15 14:23:00,79.0,62.0,29.98,SSE,150,0.0,0.0,56,0.00,,,0.01,,2013-01-15 19:23:00,
2013-01-15 14:33:00,79.0,62.0,29.99,ESE,108,0.0,0.0,56,0.00,,,0.01,,2013-01-15 19:33:00,
2013-01-15 14:43:00,79.0,62.0,29.99,ESE,108,0.0,0.0,56,0.00,,,0.01,,2013-01-15 19:43:00,
2013-01-15 14:53:00,79.0,62.0,29.98,East,88,0.0,0.0,56,0.00,,,0.01,,2013-01-15 19:53:00,
2013-01-15 15:03:00,81.0,61.0,29.98,South,190,2.0,7.0,51,0.00,,,0.01,,2013-01-15 20:03:00,
2013-01-15 15:12:00,81.0,61.0,29.98,South,190,2.0,7.0,51,0.00,,,0.01,,2013-01-15 20:12:00,
2013-01-15 15:23:00,81.0,61.0,29.98,WSW,239,1.0,3.0,51,0.00,,,0.01,,2013-01-15 20:23:00,
2013-01-15 15:33:00,81.0,61.0,29.98,SSW,208,0.0,0.0,50,0.00,,,0.01,,2013-01-15 20:33:00,
2013-01-15 15:43:00,81.0,61.0,29.98,SSW,208,0.0,0.0,50,0.00,,,0.01,,2013-01-15 20:43:00,
2013-01-15 15:53:00,81.0,62.0,29.98,SSW,196,1.0,3.0,52,0.00,,,0.01,,2013-01-15 20:53:00,
2013-01-15 16:03:00,81.0,61.0,29.97,SSE,163,3.0,5.0,50,0.00,,,0.01,,2013-01-15 21:03:00,
2013-01-15 16:13:00,81.0,61.0,29.97,SSE,163,3.0,5.0,50,0.00,,,0.01,,2013-01-15 21:13:00,
2013-01-15 16:23:00,81.0,63.0,29.97,SSW,203,0.0,0.0,54,0.00,,,0.01,,2013-01-15 21:23:00,
2013-01-15 16:33:00,80.0,61.0,29.98,SSW,205,2.0,4.0,53,0.00,,,0.01,,2013-01-15 21:33:00,
2013-01-15 16:43:00,80.0,61.0,29.98,SSW,205,2.0,4.0,53,0.00,,,0.01,,2013-01-15 21:43:00,
2013-01-15 16:53:00,79.0,61.0,29.98,West,279,2.0,5.0,54,0.00,,,0.01,,2013-01-15 21:53:00,
2013-01-15 17:03:00,79.0,61.0,29.98,WSW,254,0.0,1.0,55,0.00,,,0.01,,2013-01-15 22:03:00,
2013-01-15 17:12:00,79.0,61.0,29.98,WSW,254,0.0,1.0,55,0.00,,,0.01,,2013-01-15 22:12:00,
2013-01-15 17:23:00,78.0,61.0,29.98,SW,215,2.0,4.0,55,0.00,,,0.01,,2013-01-15 22:23:00,
2013-01-15 17:33:00,77.0,60.0,29.98,SW,229,1.0,4.0,55,0.00,,,0.01,,2013-01-15 22:33:00,
2013-01-15 17:43:00,77.0,60.0,29.98,SW,229,1.0,4.0,55,0.00,,,0.01,,2013-01-15 22:43:00,
2013-01-15 17:53:00,76.0,60.0,29.98,SW,217,1.0,5.0,58,0.00,,,0.01,,2013-01-15 22:53:00,
2013-01-15 18:03:00,75.0,60.0,29.98,SW,233,0.0,0.0,60,0.00,,,0.01,,2013-01-15 23:03:00,
2013-01-15 18:13:00,75.0,60.0,29.98,SW,233,0.0,0.0,60,0.00,,,0.01,,2013-01-15 23:13:00,
2013-01-15 18:23:00,75.0,60.0,29.98,North,0,0.0,0.0,60,0.00,,,0.01,,2013-01-15 23:23:00,
2013-01-15 18:33:00,74.0,60.0,29.98,North,0,0.0,0.0,61,0.00,,,0.01,,2013-01-15 23:33:00,
2013-01-15 18:43:00,74.0,60.0,29.98,North,0,0.0,0.0,61,0.00,,,0.01,,2013-01-15 23:43:00,
2013-01-15 18:53:00,73.0,60.0,29.98,North,0,0.0,0.0,63,0.00,,,0.01,,2013-01-15 23:53:00,
2013-01-15 19:03:00,72.0,60.0,29.99,North,0,0.0,0.0,66,0.00,,,0.01,,2013-01-16 00:03:00,
2013-01-15 19:13:00,72.0,60.0,29.99,North,0,0.0,0.0,66,0.00,,,0.01,,2013-01-16 00:13:00,
2013-01-15 19:22:00,70.0,59.0,29.99,North,0,0.0,0.0,68,0.00,,,0.01,,2013-01-16 00:22:00,
2013-01-15 19:33:00,70.0,60.0,29.99,North,0,0.0,0.0,71,0.00,,,0.01,,2013-01-16 00:33:00,
2013-01-15 19:43:00,70.0,60.0,29.99,North,0,0.0,0.0,71,0.00,,,0.01,,2013-01-16 00:43:00,
2013-01-15 19:53:00,68.0,59.0,29.99,North,0,0.0,0.0,73,0.00,,,0.01,,2013-01-16 00:53:00,
2013-01-15 20:03:00,68.0,60.0,29.99,North,0,0.0,0.0,75,0.00,,,0.01,,2013-01-16 01:03:00,
2013-01-15 20:12:00,68.0,60.0,29.99,North,0,0.0,0.0,75,0.00,,,0.01,,2013-01-16 01:12:00,
2013-01-15 20:22:00,67.0,60.0,29.98,East,91,0.0,0.0,77,0.00,,,0.01,,2013-01-16 01:22:00,
2013-01-15 20:33:00,66.0,60.0,29.98,East,91,0.0,0.0,80,0.00,,,0.01,,2013-01-16 01:33:00,
2013-01-15 20:43:00,66.0,60.0,29.98,East,91,0.0,0.0,80,0.00,,,0.01,,2013-01-16 01:43:00,
2013-01-15 20:53:00,65.0,59.0,29.98,East,91,0.0,0.0,80,0.00,,,0.01,,2013-01-16 01:53:00,
2013-01-15 21:03:00,65.0,59.0,29.98,East,91,0.0,0.0,81,0.00,,,0.01,,2013-01-16 02:03:00,
2013-01-15 21:12:00,65.0,59.0,29.98,East,91,0.0,0.0,81,0.00,,,0.01,,2013-01-16 02:12:00,
2013-01-15 21:23:00,64.0,58.0,29.98,East,91,0.0,0.0,82,0.00,,,0.01,,2013-01-16 02:23:00,
2013-01-15 21:33:00,64.0,59.0,29.98,East,91,0.0,0.0,83,0.00,,,0.01,,2013-01-16 02:33:00,
2013-01-15 21:43:00,64.0,59.0,29.98,East,91,0.0,0.0,83,0.00,,,0.01,,2013-01-16 02:43:00,
2013-01-15 21:53:00,64.0,59.0,29.98,East,91,0.0,0.0,84,0.00,,,0.01,,2013-01-16 02:53:00,
2013-01-15 22:03:00,64.0,59.0,29.98,East,91,0.0,0.0,85,0.00,,,0.01,,2013-01-16 03:03:00,
2013-01-15 22:12:00,64.0,59.0,29.98,East,91,0.0,0.0,85,0.00,,,0.01,,2013-01-16 03:12:00,
2013-01-15 22:22:00,64.0,59.0,29.98,East,91,0.0,0.0,85,0.00,,,0.01,,2013-01-16 03:22:00,
2013-01-15 22:33:00,64.0,60.0,29.98,East,91,0.0,0.0,86,0.00,,,0.01,,2013-01-16 03:33:00,
2013-01-15 22:43:00,64.0,60.0,29.98,East,91,0.0,0.0,86,0.00,,,0.01,,2013-01-16 03:43:00,
2013-01-15 22:53:00,65.0,61.0,29.99,East,91,0.0,0.0,86,0.00,,,0.01,,2013-01-16 03:53:00,
2013-01-15 23:02:00,65.0,61.0,29.99,East,91,0.0,0.0,86,0.00,,,0.01,,2013-01-16 04:02:00,
2013-01-15 23:12:00,65.0,61.0,29.99,East,91,0.0,0.0,86,0.00,,,0.01,,2013-01-16 04:12:00,
2013-01-15 23:22:00,65.0,61.0,29.99,East,91,0.0,0.0,86,0.00,,,0.01,,2013-01-16 04:22:00,
2013-01-15 23:33:00,65.0,61.0,29.99,East,91,0.0,0.0,86,0.00,,,0.01,,2013-01-16 04:33:00,
2013-01-15 23:42:00,65.0,61.0,29.99,East,91,0.0,0.0,86,0.00,,,0.01,,2013-01-16 04:42:00,
2013-01-15 23:52:00,65.0,61.0,29.99,East,91,0.0,0.0,86,0.00,,,0.01,,2013-01-16 04:52:00,